Pierson, MI (49339)

10:08 AM EDT on July 06, 2015 (GMT -0400)
Ensley Center - Snow Farm | | Change Station
CLOSE
Current Station
Personal Weather Station
Location: Howard City, MI
Elevation: 982 ft
Nearby Weather Stations

Elev 982 ft 43.36 °N, 85.62 °W | Updated 11 minutes ago

Partly Cloudy
Partly Cloudy
73.4 °F
Feels Like 73 °F
N
5.3
Wind Variable Wind from South

Today
High -- | Low -- °F
--% Chance of Precip.
Yesterday
High -- | Low -- °F
Precip. -- in
6:08 AM 9:24 PM
Waning Gibbous, 75% visible
Pressure 30.00 in
Visibility 7.0 miles
Clouds Clear
Heat Index 73 °F
Dew Point 68 °F
Humidity 83%
Rainfall 0.00 in
Snow Depth Not available.
UV 5 out of 12
Pollen 5.00 out of 12
Air Quality Not available.
Flu Activity Not available.
METAR KFFX 061351Z AUTO 17006KT 7SM CLR 22/18 A3000 RMK AO2 T02230179

More Conditions Fewer Conditions

Pressure 30.00 in
Visibility 7.0 miles
Clouds Clear
Heat Index 73 °F
Dew Point 68 °F
Humidity 83%
Rainfall 0.00 in
Snow Depth Not available.
UV 5 out of 12
Pollen 5.00 out of 12
Air Quality Not available.
Flu Activity Not available.
METAR KFFX 061351Z AUTO 17006KT 7SM CLR 22/18 A3000 RMK AO2 T02230179

More Conditions Fewer Conditions

10-Day Weather Forecast

×

Almanac

Astronomy

Jul. 06, 2015 Rise Set
Actual Time
Civil Twilight
Nautical Twilight
Astronomical Twilight
Moon
Length of Visible Light
Length of Day
Tomorrow will be .
, % of the Moon is Illuminated

Today's Extremes

State Highs State Lows

Community

WunderPhotos

Upload Photos

1,835,558 photos uploaded!

WunderBlogs® & News

Nearby

Air Quality

  Air Quality AQ Index Pollutant
Not available.

Snow Depth

Station Depth Elevation

Earthquake Activity

City Distance Mag. Time & Date
Minimum magnitude displayed is 2.5.

Coastal Water Temperatures

Place Temperature

Stations

Nearby Weather Stations

Station Location Temp. Windchill Dew Point Humidity Wind Precip. Elev Updated Type